createdAt,value
2022-08-31T00:01:59.522Z,20.01
2022-08-31T00:12:52.346Z,19.82
2022-08-31T00:23:53.300Z,19.79
2022-08-31T00:34:53.529Z,19.65
2022-08-31T00:45:55.400Z,19.69
2022-08-31T00:56:56.614Z,19.65
2022-08-31T01:07:58.496Z,19.46
2022-08-31T01:19:00.302Z,19.55
2022-08-31T01:30:01.339Z,19.68
2022-08-31T01:40:58.162Z,19.73
2022-08-31T01:51:55.450Z,19.68
2022-08-31T02:02:57.475Z,19.38
2022-08-31T02:13:58.576Z,19.25
2022-08-31T02:25:00.099Z,19.25
2022-08-31T02:36:01.905Z,19.18
2022-08-31T02:46:40.290Z,19.28
2022-08-31T02:57:17.150Z,19.28
2022-08-31T03:08:18.545Z,19.08
2022-08-31T03:18:56.271Z,19.09
2022-08-31T03:29:34.020Z,18.84
2022-08-31T03:40:29.871Z,18.69
2022-08-31T03:51:14.416Z,18.61
2022-08-31T04:02:15.253Z,18.64
2022-08-31T04:13:16.534Z,18.73
2022-08-31T04:23:54.306Z,18.92
2022-08-31T04:34:56.340Z,18.86
2022-08-31T04:45:54.995Z,19.02
2022-08-31T04:56:56.892Z,18.92
2022-08-31T05:07:59.592Z,19.14
2022-08-31T05:19:01.818Z,19.31
2022-08-31T05:30:02.214Z,19.57
2022-08-31T05:41:03.742Z,19.87
2022-08-31T05:52:05.505Z,20.05
2022-08-31T06:02:54.037Z,20.27
2022-08-31T06:13:56.883Z,20.46
2022-08-31T06:24:58.643Z,20.64
2022-08-31T06:35:55.086Z,21.05
2022-08-31T06:46:56.666Z,21.23
2022-08-31T06:57:56.158Z,21.01
2022-08-31T07:08:54.544Z,21.46
2022-08-31T07:19:55.807Z,21.84
2022-08-31T07:30:53.216Z,21.81
2022-08-31T07:41:48.412Z,21.48
2022-08-31T07:52:41.071Z,21.26
2022-08-31T08:03:40.262Z,21.02
2022-08-31T08:14:14.508Z,20.86
2022-08-31T08:25:13.785Z,20.24
2022-08-31T08:36:16.090Z,19.60
2022-08-31T08:47:14.947Z,19.53
2022-08-31T08:58:14.689Z,20.05
2022-08-31T09:09:14.849Z,20.26
2022-08-31T09:20:15.316Z,20.65
2022-08-31T09:31:09.539Z,20.80
2022-08-31T09:41:46.451Z,20.59
2022-08-31T09:52:36.591Z,20.64
2022-08-31T10:03:37.127Z,21.82
2022-08-31T10:14:31.615Z,21.39
2022-08-31T10:25:30.764Z,21.98
2022-08-31T10:36:27.335Z,22.05
2022-08-31T10:47:03.358Z,22.65
2022-08-31T10:57:38.944Z,22.87
2022-08-31T11:08:39.213Z,24.40
2022-08-31T11:19:38.307Z,23.42
2022-08-31T11:30:10.716Z,22.78
2022-08-31T11:40:51.739Z,21.78
2022-08-31T11:51:41.488Z,21.60
2022-08-31T12:02:41.608Z,21.67
2022-08-31T12:13:38.694Z,21.59
2022-08-31T12:24:29.747Z,21.33
2022-08-31T12:35:03.483Z,21.20
2022-08-31T12:45:39.992Z,21.26
2022-08-31T12:56:14.337Z,21.16
2022-08-31T13:07:12.240Z,20.84
2022-08-31T13:18:11.240Z,20.74
2022-08-31T13:29:00.342Z,20.35
2022-08-31T13:39:56.330Z,20.09
2022-08-31T13:50:53.499Z,20.03
2022-08-31T14:01:48.084Z,19.91
2022-08-31T14:12:44.588Z,19.71
2022-08-31T14:23:39.359Z,19.42
2022-08-31T14:34:27.173Z,19.42
2022-08-31T14:45:26.025Z,19.46
2022-08-31T14:56:16.413Z,19.43
2022-08-31T15:07:15.004Z,19.48
2022-08-31T15:18:11.679Z,19.38
2022-08-31T15:29:11.766Z,19.05
2022-08-31T15:40:08.065Z,18.94
2022-08-31T15:51:06.771Z,18.84
2022-08-31T16:02:01.393Z,18.52
2022-08-31T16:12:57.951Z,18.40
2022-08-31T16:23:49.154Z,18.50
2022-08-31T16:34:48.257Z,18.21
2022-08-31T16:45:31.579Z,18.16
2022-08-31T16:56:26.327Z,17.69
2022-08-31T17:07:24.416Z,17.69
2022-08-31T17:18:23.734Z,17.55
2022-08-31T17:29:14.763Z,17.43
2022-08-31T17:40:10.199Z,17.36
2022-08-31T17:51:11.679Z,17.38
2022-08-31T18:02:03.800Z,17.23
2022-08-31T18:13:01.579Z,17.36
2022-08-31T18:23:48.161Z,17.32
2022-08-31T18:34:36.493Z,17.25
2022-08-31T18:45:25.725Z,17.28
2022-08-31T18:56:19.563Z,17.32
2022-08-31T19:07:09.231Z,17.20
2022-08-31T19:18:05.017Z,17.23
2022-08-31T19:28:59.674Z,17.14
2022-08-31T19:39:57.446Z,17.17
2022-08-31T19:50:57.155Z,17.30
2022-08-31T20:01:53.034Z,17.30
2022-08-31T20:12:49.513Z,17.29
2022-08-31T20:23:47.702Z,17.33
2022-08-31T20:34:47.589Z,17.25
2022-08-31T20:45:44.295Z,17.25
2022-08-31T20:56:42.996Z,17.20
2022-08-31T21:07:40.031Z,17.33
2022-08-31T21:18:38.373Z,17.18
2022-08-31T21:29:36.890Z,17.17
2022-08-31T21:40:36.741Z,17.30
2022-08-31T21:51:37.678Z,17.23
2022-08-31T22:02:28.563Z,17.32
2022-08-31T22:13:24.532Z,17.25
2022-08-31T22:24:27.349Z,17.29
2022-08-31T22:35:26.498Z,17.23
2022-08-31T22:46:20.519Z,17.32
2022-08-31T22:57:19.742Z,17.29
2022-08-31T23:08:17.872Z,17.26
2022-08-31T23:19:19.652Z,17.28
2022-08-31T23:30:13.080Z,17.29
2022-08-31T23:41:13.756Z,17.20
2022-08-31T23:52:10.934Z,17.23
